Time;durP1;ratioP1;P1;durP2;ratioP2;P2;SDS_P1;SDS_P2;PMS_P1;PMS_P2;Temp;Humidity;BMP_temperature;BMP_pressure;BME280_temperature;BME280_humidity;BME280_pressure;Samples;Min_cycle;Max_cycle;Signal;HPM_P1;HPM_P2
2023/09/20 00:01:21;;;;;;;9.15;3.10;;;17.00;83.60;;;;;;5008831;28;20051;-89
2023/09/20 00:03:49;;;;;;;9.13;2.85;;;17.00;83.60;;;;;;4992048;28;20066;-90
2023/09/20 00:06:18;;;;;;;9.27;2.72;;;17.00;83.50;;;;;;4991848;28;20078;-90
2023/09/20 00:08:45;;;;;;;6.80;2.63;;;17.00;83.30;;;;;;5007356;28;20078;-88
2023/09/20 00:11:15;;;;;;;9.27;3.10;;;17.00;83.30;;;;;;5007824;28;20275;-90
2023/09/20 00:13:42;;;;;;;9.95;2.70;;;17.10;82.90;;;;;;5007827;28;20103;-90
2023/09/20 00:16:13;;;;;;;10.18;3.10;;;17.10;82.90;;;;;;4975202;28;20054;-89
2023/09/20 00:18:40;;;;;;;7.78;2.90;;;17.10;82.90;;;;;;5007287;28;20102;-89
2023/09/20 00:21:07;;;;;;;8.37;3.07;;;17.10;82.90;;;;;;4991248;28;20126;-88
2023/09/20 00:23:35;;;;;;;9.15;2.95;;;17.20;82.60;;;;;;4974374;28;21215;-88
2023/09/20 00:26:03;;;;;;;7.88;2.88;;;17.20;82.40;;;;;;5007517;28;20058;-88
2023/09/20 00:28:31;;;;;;;8.45;2.90;;;17.20;82.30;;;;;;4974402;28;20516;-87
2023/09/20 00:31:00;;;;;;;9.95;2.92;;;17.20;82.40;;;;;;5007417;28;20059;-89
2023/09/20 00:33:29;;;;;;;7.20;2.63;;;17.20;82.30;;;;;;5007289;28;20051;-89
2023/09/20 00:35:56;;;;;;;8.32;3.00;;;17.20;82.30;;;;;;4957564;28;20339;-89
2023/09/20 00:38:25;;;;;;;8.50;3.17;;;17.20;82.00;;;;;;5006962;28;20050;-89
2023/09/20 00:40:53;;;;;;;12.15;2.88;;;17.20;81.80;;;;;;5006251;28;21095;-89
2023/09/20 00:43:24;;;;;;;9.57;2.17;;;17.20;81.80;;;;;;5006413;28;20055;-88
2023/09/20 00:45:52;;;;;;;9.97;3.13;;;17.20;81.70;;;;;;5005706;28;20063;-89
2023/09/20 00:48:20;;;;;;;11.48;3.25;;;17.20;81.60;;;;;;5006052;28;21174;-89
2023/09/20 00:50:49;;;;;;;11.23;3.10;;;17.20;81.70;;;;;;5006133;28;20147;-88
2023/09/20 00:53:21;;;;;;;9.40;2.90;;;17.20;81.50;;;;;;4990280;28;20086;-89
2023/09/20 00:55:49;;;;;;;7.38;2.42;;;17.30;81.10;;;;;;4973818;28;20091;-88
2023/09/20 00:58:18;;;;;;;8.20;2.67;;;17.30;81.10;;;;;;5006042;28;20051;-89
2023/09/20 01:00:46;;;;;;;9.13;2.75;;;17.30;81.00;;;;;;4990180;28;20283;-89
2023/09/20 01:03:19;;;;;;;8.32;2.80;;;17.30;81.00;;;;;;5006617;28;20059;-89
2023/09/20 01:05:48;;;;;;;9.02;2.25;;;17.40;80.80;;;;;;5006595;28;20059;-89
2023/09/20 01:08:19;;;;;;;7.78;2.40;;;17.40;80.60;;;;;;4989829;28;20051;-87
2023/09/20 01:10:47;;;;;;;9.33;2.60;;;17.40;80.40;;;;;;5005783;28;20059;-88
2023/09/20 01:13:18;;;;;;;10.90;2.70;;;17.40;80.30;;;;;;5006347;28;20281;-89
2023/09/20 01:15:46;;;;;;;7.68;2.40;;;17.40;80.20;;;;;;5006317;28;20059;-89
2023/09/20 01:18:13;;;;;;;7.80;2.88;;;17.40;80.20;;;;;;5005597;28;20091;-88
2023/09/20 01:20:41;;;;;;;9.90;2.88;;;17.40;80.10;;;;;;5004531;28;20114;-89
2023/09/20 01:23:10;;;;;;;12.00;2.70;;;17.50;79.90;;;;;;4989534;28;20051;-89
2023/09/20 01:25:39;;;;;;;9.32;2.97;;;17.50;79.70;;;;;;5005602;28;20228;-87
2023/09/20 01:28:09;;;;;;;10.57;2.70;;;17.50;79.60;;;;;;5005695;28;20058;-89
2023/09/20 01:30:38;;;;;;;7.40;2.45;;;17.50;79.30;;;;;;5005491;28;20505;-89
2023/09/20 01:33:06;;;;;;;5.97;2.47;;;17.50;79.30;;;;;;5005675;28;20054;-89
2023/09/20 01:35:35;;;;;;;9.20;2.70;;;17.50;79.20;;;;;;5005620;28;20065;-88
2023/09/20 01:38:04;;;;;;;8.98;2.58;;;17.50;79.30;;;;;;5005636;28;20907;-88
2023/09/20 01:40:34;;;;;;;8.80;3.13;;;17.50;79.10;;;;;;4988760;28;20063;-89
2023/09/20 01:43:03;;;;;;;8.05;2.38;;;17.50;79.10;;;;;;4989080;28;20051;-88
2023/09/20 01:45:34;;;;;;;10.10;2.83;;;17.50;79.00;;;;;;4972559;28;20063;-88
2023/09/20 01:48:04;;;;;;;8.30;2.60;;;17.50;78.90;;;;;;5005218;28;20054;-88
2023/09/20 01:50:32;;;;;;;8.30;2.30;;;17.60;78.80;;;;;;5005096;28;20795;-88
2023/09/20 01:53:00;;;;;;;7.65;2.50;;;17.60;78.70;;;;;;5004587;28;20051;-88
2023/09/20 01:55:31;;;;;;;6.65;2.10;;;17.60;78.70;;;;;;5004289;28;20055;-88
2023/09/20 01:58:03;;;;;;;9.18;2.67;;;17.60;78.70;;;;;;5004157;28;20050;-89
2023/09/20 02:00:33;;;;;;;6.87;2.20;;;17.60;78.30;;;;;;4988148;28;20053;-88
2023/09/20 02:03:05;;;;;;;7.45;2.70;;;17.60;78.30;;;;;;5004270;28;20255;-87
2023/09/20 02:05:33;;;;;;;8.95;2.72;;;17.60;78.40;;;;;;5004437;28;20055;-87
2023/09/20 02:08:01;;;;;;;6.70;2.35;;;17.60;78.40;;;;;;5004070;28;20047;-88
2023/09/20 02:10:28;;;;;;;8.63;2.28;;;17.60;78.40;;;;;;4987553;28;20540;-87
2023/09/20 02:12:56;;;;;;;8.10;2.47;;;17.60;78.20;;;;;;4971507;28;20059;-87
2023/09/20 02:15:28;;;;;;;10.40;2.25;;;17.70;78.20;;;;;;5003841;28;20250;-88
2023/09/20 02:17:55;;;;;;;7.93;2.00;;;17.70;78.10;;;;;;4987537;28;20055;-87
2023/09/20 02:23:54;;;;;;;8.02;2.20;;;17.70;78.10;;;;;;4987737;28;20055;-88
2023/09/20 02:26:23;;;;;;;6.50;2.07;;;17.70;78.00;;;;;;5003864;28;20520;-87
2023/09/20 02:28:51;;;;;;;7.85;2.55;;;17.70;77.90;;;;;;4971469;28;20260;-88
2023/09/20 02:31:19;;;;;;;10.88;2.30;;;17.70;78.10;;;;;;4955216;28;20051;-87
2023/09/20 02:33:46;;;;;;;6.90;2.00;;;17.80;78.00;;;;;;4954903;28;20054;-87
2023/09/20 02:36:14;;;;;;;7.60;2.40;;;17.80;78.00;;;;;;5003924;28;20063;-88
2023/09/20 02:38:41;;;;;;;7.83;2.37;;;17.80;78.20;;;;;;4955090;28;20051;-88
2023/09/20 02:41:08;;;;;;;8.43;2.17;;;17.70;78.30;;;;;;5003664;28;20653;-88
2023/09/20 02:43:38;;;;;;;6.07;1.80;;;17.70;78.30;;;;;;5003552;28;20138;-88
2023/09/20 02:46:07;;;;;;;7.88;2.22;;;17.70;78.20;;;;;;5003596;28;20090;-88
2023/09/20 02:48:36;;;;;;;8.25;2.40;;;17.70;78.20;;;;;;5003692;28;20989;-88
2023/09/20 02:51:05;;;;;;;8.00;2.47;;;17.70;78.10;;;;;;4987243;28;20061;-88
2023/09/20 02:53:33;;;;;;;8.45;2.10;;;17.70;78.10;;;;;;4987414;28;20252;-86
2023/09/20 02:56:00;;;;;;;7.72;2.60;;;17.80;78.10;;;;;;4970652;28;20079;-87
2023/09/20 02:58:27;;;;;;;7.35;2.58;;;17.80;78.00;;;;;;4986824;28;20055;-88
2023/09/20 03:00:57;;;;;;;9.90;2.47;;;17.80;78.00;;;;;;5003526;28;20063;-86
2023/09/20 03:03:25;;;;;;;7.10;2.10;;;17.80;77.90;;;;;;5003664;28;20060;-89
2023/09/20 03:05:56;;;;;;;10.25;2.33;;;17.80;77.90;;;;;;4986845;28;20232;-87
2023/09/20 03:08:24;;;;;;;9.75;2.60;;;17.70;78.00;;;;;;5003637;28;20122;-89
2023/09/20 03:10:53;;;;;;;8.70;2.38;;;17.70;77.90;;;;;;4986205;28;20065;-88
2023/09/20 03:13:20;;;;;;;8.65;2.33;;;17.70;77.80;;;;;;4987471;28;20078;-87
2023/09/20 03:15:54;;;;;;;9.57;2.37;;;17.70;77.70;;;;;;5003094;28;20150;-88
2023/09/20 03:18:24;;;;;;;11.07;2.53;;;17.70;77.70;;;;;;4986499;28;20264;-87
2023/09/20 03:21:06;;;;;;;9.50;2.50;;;17.70;77.80;;;;;;4986410;28;20055;-88
2023/09/20 03:23:33;;;;;;;9.63;2.40;;;17.70;77.70;;;;;;5003155;28;20130;-89
2023/09/20 03:26:01;;;;;;;8.93;2.95;;;17.70;77.60;;;;;;5002685;28;20051;-88
2023/09/20 03:28:29;;;;;;;8.90;2.60;;;17.60;77.70;;;;;;5002901;28;20545;-87
2023/09/20 03:30:59;;;;;;;7.28;2.58;;;17.60;77.70;;;;;;5002682;28;20275;-87
2023/09/20 03:33:31;;;;;;;7.00;2.60;;;17.60;77.70;;;;;;5002905;28;20051;-87
2023/09/20 03:36:02;;;;;;;8.13;2.70;;;17.60;77.80;;;;;;4986046;28;20480;-87
2023/09/20 03:38:32;;;;;;;10.18;2.60;;;17.60;77.70;;;;;;5000798;28;20549;-88
2023/09/20 03:40:59;;;;;;;9.03;2.60;;;17.60;77.60;;;;;;4986094;28;20058;-88
2023/09/20 03:43:27;;;;;;;10.38;2.95;;;17.60;77.60;;;;;;4987893;28;20278;-87
2023/09/20 03:45:55;;;;;;;8.52;2.55;;;17.50;77.70;;;;;;5005378;28;20082;-87
2023/09/20 03:48:22;;;;;;;7.47;2.63;;;17.50;77.70;;;;;;4989471;28;20051;-88
2023/09/20 03:50:50;;;;;;;9.60;2.63;;;17.50;77.70;;;;;;4989817;28;20055;-88
2023/09/20 03:53:17;;;;;;;8.80;2.80;;;17.50;77.80;;;;;;4956898;28;20047;-88
2023/09/20 03:55:46;;;;;;;8.98;2.35;;;17.50;77.80;;;;;;4973037;28;20287;-88
2023/09/20 03:58:13;;;;;;;9.63;2.17;;;17.50;77.80;;;;;;5005592;28;20806;-87
2023/09/20 04:00:42;;;;;;;8.52;2.15;;;17.50;77.90;;;;;;5005443;28;20067;-88
2023/09/20 04:03:13;;;;;;;7.88;2.50;;;17.50;77.70;;;;;;4989557;28;20055;-88
2023/09/20 04:05:40;;;;;;;7.47;2.80;;;17.50;77.60;;;;;;4989045;28;20047;-88
2023/09/20 04:08:08;;;;;;;8.23;2.40;;;17.40;77.80;;;;;;4989689;28;20248;-88
2023/09/20 04:10:35;;;;;;;9.38;2.58;;;17.40;77.80;;;;;;4989396;28;20059;-88
2023/09/20 04:13:06;;;;;;;9.43;2.65;;;17.40;77.90;;;;;;5005753;28;20066;-88
2023/09/20 04:15:33;;;;;;;9.05;2.42;;;17.40;77.90;;;;;;5005396;28;20051;-87
2023/09/20 04:18:08;;;;;;;10.03;2.40;;;17.30;78.00;;;;;;5005564;28;20082;-87
2023/09/20 04:20:35;;;;;;;9.40;2.40;;;17.30;78.00;;;;;;5007618;28;20356;-88
2023/09/20 04:23:03;;;;;;;10.40;2.88;;;17.20;78.00;;;;;;5006101;28;20055;-88
2023/09/20 04:25:30;;;;;;;8.93;2.60;;;17.20;78.00;;;;;;4988471;28;20652;-87
2023/09/20 04:27:57;;;;;;;8.23;2.17;;;17.20;78.00;;;;;;5005055;28;20054;-88
2023/09/20 04:30:26;;;;;;;7.47;2.50;;;17.20;78.00;;;;;;4988468;28;20877;-88
2023/09/20 04:32:55;;;;;;;8.40;2.45;;;17.20;78.10;;;;;;5005036;28;21098;-86
2023/09/20 04:35:30;;;;;;;7.90;2.28;;;17.20;78.10;;;;;;5004922;28;20114;-87
2023/09/20 04:38:12;;;;;;;7.20;2.30;;;17.20;78.10;;;;;;5007577;28;20058;-88
2023/09/20 04:40:39;;;;;;;7.57;2.40;;;17.10;78.20;;;;;;5005161;28;20055;-88
2023/09/20 04:43:07;;;;;;;8.17;2.63;;;17.00;78.30;;;;;;5004806;28;20048;-88
2023/09/20 04:45:35;;;;;;;6.25;2.03;;;17.00;78.40;;;;;;5004653;28;20753;-88
2023/09/20 04:48:03;;;;;;;7.35;2.20;;;17.00;78.60;;;;;;4955601;28;20047;-88
2023/09/20 04:50:30;;;;;;;8.07;2.70;;;17.00;78.60;;;;;;4971775;28;20059;-88
2023/09/20 04:52:57;;;;;;;6.78;2.55;;;17.00;78.70;;;;;;5004657;28;20528;-88
2023/09/20 04:55:26;;;;;;;7.37;1.93;;;17.00;78.70;;;;;;5004157;28;20110;-87
2023/09/20 04:57:53;;;;;;;8.77;2.58;;;16.90;78.70;;;;;;5004887;28;20275;-89
2023/09/20 05:00:26;;;;;;;7.38;2.50;;;16.90;78.90;;;;;;4988097;28;20130;-88
2023/09/20 05:02:55;;;;;;;7.15;2.40;;;16.90;78.80;;;;;;4988004;28;20893;-88
2023/09/20 05:05:23;;;;;;;9.05;2.72;;;16.90;78.90;;;;;;5004240;28;20473;-89
2023/09/20 05:07:52;;;;;;;10.73;2.40;;;16.90;78.90;;;;;;5003705;28;20054;-87
2023/09/20 05:22:43;;;;;;;9.27;2.40;;;16.80;78.80;;;;;;5001973;28;20058;-84
2023/09/20 05:25:15;;;;;;;7.70;2.07;;;16.70;78.90;;;;;;4987625;28;20134;-88
2023/09/20 05:27:43;;;;;;;8.73;2.58;;;16.70;79.00;;;;;;4990381;28;20252;-87
2023/09/20 05:30:13;;;;;;;8.95;2.40;;;16.70;79.10;;;;;;4970379;28;20055;-88
2023/09/20 05:32:40;;;;;;;8.77;2.20;;;16.60;79.10;;;;;;5006506;28;20506;-90
2023/09/20 05:35:08;;;;;;;6.97;2.05;;;16.70;79.20;;;;;;5006018;28;20840;-90
2023/09/20 05:37:38;;;;;;;6.67;2.20;;;16.60;79.30;;;;;;4990806;28;20110;-88
2023/09/20 05:40:14;;;;;;;7.32;2.40;;;16.60;79.50;;;;;;4990278;28;20294;-87
2023/09/20 05:42:41;;;;;;;10.50;2.20;;;16.60;79.50;;;;;;5005138;28;20047;-87
2023/09/20 05:45:09;;;;;;;6.40;2.40;;;16.60;79.50;;;;;;5004026;28;20055;-87
2023/09/20 05:47:40;;;;;;;5.85;2.58;;;16.50;79.50;;;;;;4970257;28;20533;-87
2023/09/20 05:50:10;;;;;;;7.50;2.50;;;16.60;79.60;;;;;;4954631;28;20051;-84
2023/09/20 05:52:40;;;;;;;10.23;2.45;;;16.50;79.70;;;;;;4953717;28;20259;-83
2023/09/20 05:55:13;;;;;;;7.28;2.50;;;16.50;79.80;;;;;;4969581;28;20166;-85
2023/09/20 05:57:41;;;;;;;6.28;2.58;;;16.50;79.80;;;;;;4969962;28;20062;-84
2023/09/20 06:00:16;;;;;;;7.80;2.20;;;16.50;79.80;;;;;;4985241;28;20075;-84
2023/09/20 06:02:44;;;;;;;8.80;2.23;;;16.50;79.70;;;;;;4985279;28;20047;-84
2023/09/20 06:05:12;;;;;;;10.55;2.50;;;16.50;79.70;;;;;;5002332;28;20287;-86
2023/09/20 06:07:40;;;;;;;7.13;2.30;;;16.50;80.00;;;;;;4955422;28;20059;-89
2023/09/20 06:10:55;;;;;;;8.35;2.40;;;16.50;80.00;;;;;;5006317;28;20063;-91
2023/09/20 06:13:34;;;;;;;6.35;2.30;;;16.50;80.10;;;;;;4990725;28;20125;-89
2023/09/20 06:16:01;;;;;;;9.20;2.87;;;16.50;80.10;;;;;;4955245;28;21064;-89
2023/09/20 06:18:28;;;;;;;7.03;2.28;;;16.50;80.20;;;;;;5002490;28;20656;-86
2023/09/20 06:20:55;;;;;;;9.38;2.45;;;16.50;80.30;;;;;;5002674;28;20177;-85
2023/09/20 06:23:25;;;;;;;9.15;2.42;;;16.40;80.50;;;;;;4969835;28;20051;-85
2023/09/20 06:25:54;;;;;;;9.20;2.78;;;16.50;80.50;;;;;;4971740;28;20055;-86
2023/09/20 06:28:24;;;;;;;7.93;2.60;;;16.50;80.60;;;;;;4972370;28;20047;-85
2023/09/20 06:30:51;;;;;;;5.80;1.75;;;16.50;80.60;;;;;;5022559;28;20274;-85
2023/09/20 06:33:18;;;;;;;5.65;2.40;;;16.50;80.50;;;;;;5005566;28;20047;-85
2023/09/20 06:35:45;;;;;;;8.15;2.60;;;16.50;80.60;;;;;;4988421;28;20812;-85
2023/09/20 06:38:12;;;;;;;5.95;2.15;;;16.50;80.70;;;;;;5022213;28;20047;-84
2023/09/20 06:40:40;;;;;;;8.17;2.00;;;16.50;80.80;;;;;;4971540;28;20062;-86
2023/09/20 06:43:09;;;;;;;5.65;2.47;;;16.60;80.90;;;;;;5021480;28;20333;-85
2023/09/20 06:45:37;;;;;;;9.52;2.50;;;16.60;80.70;;;;;;4988351;28;20051;-86
2023/09/20 06:48:06;;;;;;;6.78;2.17;;;16.60;80.70;;;;;;5021893;28;20055;-86
2023/09/20 06:50:33;;;;;;;6.18;1.90;;;16.60;80.90;;;;;;5021465;28;20114;-86
2023/09/20 06:53:00;;;;;;;8.60;2.20;;;16.70;80.90;;;;;;4988346;28;20051;-85
2023/09/20 06:55:28;;;;;;;6.57;2.15;;;16.70;80.80;;;;;;5021678;28;20365;-85
2023/09/20 06:57:55;;;;;;;10.68;2.30;;;16.70;81.00;;;;;;4987819;28;20062;-85
2023/09/20 07:00:26;;;;;;;7.35;2.35;;;16.70;81.00;;;;;;5021770;28;20055;-85
2023/09/20 07:02:53;;;;;;;7.00;2.35;;;16.70;81.00;;;;;;4988902;28;20146;-85
2023/09/20 07:05:24;;;;;;;9.93;2.43;;;16.80;81.00;;;;;;5022111;28;20065;-85
2023/09/20 07:07:51;;;;;;;10.07;2.78;;;16.80;81.00;;;;;;5005348;28;20262;-86
2023/09/20 07:10:19;;;;;;;10.30;2.60;;;16.80;81.00;;;;;;5021619;28;20054;-85
2023/09/20 07:12:46;;;;;;;8.00;2.08;;;16.90;81.10;;;;;;5004871;28;20062;-85
2023/09/20 07:15:18;;;;;;;6.43;2.30;;;16.90;80.90;;;;;;4972426;28;20057;-85
2023/09/20 07:17:50;;;;;;;6.33;2.07;;;17.00;80.60;;;;;;4972911;28;20786;-85
2023/09/20 07:20:18;;;;;;;9.02;2.75;;;17.00;80.70;;;;;;4992129;28;20290;-85
2023/09/20 07:22:46;;;;;;;8.13;2.92;;;17.00;80.70;;;;;;4992299;28;20126;-85
2023/09/20 07:25:17;;;;;;;8.00;2.58;;;17.00;80.50;;;;;;4992062;28;20047;-85
2023/09/20 07:27:45;;;;;;;8.85;2.33;;;17.00;80.40;;;;;;4975803;28;20054;-85
2023/09/20 07:30:17;;;;;;;9.50;2.67;;;17.00;80.50;;;;;;4992273;28;20067;-85
2023/09/20 07:32:45;;;;;;;7.15;2.60;;;17.10;80.40;;;;;;4991843;28;20290;-85
2023/09/20 07:35:26;;;;;;;7.00;2.38;;;17.20;80.40;;;;;;5024621;28;20157;-84
2023/09/20 07:37:56;;;;;;;6.53;2.55;;;17.20;80.10;;;;;;4975806;28;20046;-86
2023/09/20 07:40:28;;;;;;;8.30;2.60;;;17.20;80.30;;;;;;4975925;28;20083;-85
2023/09/20 07:42:59;;;;;;;6.20;2.33;;;17.20;80.40;;;;;;4986774;28;20059;-84
2023/09/20 07:45:31;;;;;;;7.90;2.50;;;17.40;79.60;;;;;;4988178;28;20283;-86
2023/09/20 07:48:00;;;;;;;9.48;2.70;;;17.50;79.60;;;;;;4987022;28;20085;-84
2023/09/20 07:50:30;;;;;;;8.30;2.97;;;17.50;79.40;;;;;;4974728;28;20078;-86
2023/09/20 07:52:58;;;;;;;7.13;2.42;;;17.50;79.20;;;;;;4985321;28;20135;-87
2023/09/20 07:55:27;;;;;;;6.40;2.37;;;17.50;79.00;;;;;;5004444;28;20055;-85
2023/09/20 07:57:58;;;;;;;6.53;2.25;;;17.50;79.20;;;;;;5005756;28;20259;-84
2023/09/20 08:00:26;;;;;;;6.90;2.03;;;17.50;79.30;;;;;;5006309;28;20142;-84
2023/09/20 08:02:54;;;;;;;8.35;2.65;;;17.60;79.10;;;;;;4959152;28;20059;-86
2023/09/20 08:05:23;;;;;;;7.60;2.80;;;17.60;79.00;;;;;;4954693;28;20055;-83
2023/09/20 08:07:57;;;;;;;8.07;2.70;;;17.60;78.80;;;;;;4988979;28;20055;-89
2023/09/20 08:10:24;;;;;;;9.32;2.75;;;17.60;78.70;;;;;;4955648;28;20271;-84
2023/09/20 08:12:51;;;;;;;8.27;2.72;;;17.70;78.60;;;;;;5001994;28;20059;-86
2023/09/20 08:15:22;;;;;;;7.35;2.55;;;17.70;78.60;;;;;;4988377;28;20055;-85
2023/09/20 08:20:37;;;;;;;9.90;2.90;;;17.70;78.70;;;;;;4985944;28;20058;-82
2023/09/20 09:00:24;;;;;;;5.78;2.20;;;17.80;78.90;;;;;;4983570;28;20051;-83
2023/09/20 09:02:53;;;;;;;9.07;2.40;;;17.80;79.00;;;;;;5000362;28;20513;-84
2023/09/20 09:05:21;;;;;;;6.32;2.13;;;17.80;79.00;;;;;;4987229;28;20806;-84
2023/09/20 09:07:49;;;;;;;6.93;2.30;;;17.80;79.00;;;;;;4965302;28;20541;-84
2023/09/20 09:10:17;;;;;;;6.45;2.10;;;17.90;78.90;;;;;;4986976;28;20055;-84
2023/09/20 09:12:45;;;;;;;7.82;2.20;;;18.00;78.30;;;;;;4971992;28;20069;-84
2023/09/20 09:15:16;;;;;;;7.00;2.27;;;18.00;78.00;;;;;;4970008;28;20055;-84
2023/09/20 09:17:44;;;;;;;7.40;2.17;;;18.00;78.00;;;;;;4967691;28;20772;-84
2023/09/20 09:20:13;;;;;;;6.50;2.30;;;18.00;77.80;;;;;;4986500;28;20059;-82
2023/09/20 09:22:41;;;;;;;5.70;2.53;;;18.00;77.90;;;;;;4986432;28;20047;-85
2023/09/20 09:25:12;;;;;;;5.95;2.03;;;18.00;78.00;;;;;;4976538;28;20055;-85
2023/09/20 09:27:42;;;;;;;5.43;2.37;;;18.00;78.20;;;;;;5002479;28;20055;-86
2023/09/20 09:30:12;;;;;;;6.57;2.08;;;18.00;78.40;;;;;;4987880;28;20306;-85
2023/09/20 09:32:40;;;;;;;7.28;2.30;;;18.00;78.30;;;;;;5003883;28;20062;-85
2023/09/20 09:35:08;;;;;;;5.13;2.20;;;18.00;78.20;;;;;;4986843;28;20632;-85
2023/09/20 09:37:39;;;;;;;6.28;2.20;;;18.00;78.60;;;;;;4989031;28;20146;-86
2023/09/20 09:40:08;;;;;;;6.33;2.07;;;18.00;78.30;;;;;;4956194;28;20055;-86
2023/09/20 09:42:39;;;;;;;8.15;2.53;;;18.10;78.60;;;;;;4984620;28;20334;-86
2023/09/20 09:45:07;;;;;;;5.97;2.10;;;18.10;78.60;;;;;;4970653;28;20061;-86
2023/09/20 09:47:36;;;;;;;5.28;2.15;;;18.10;78.80;;;;;;4974507;28;20051;-85
2023/09/20 09:50:06;;;;;;;6.50;1.92;;;18.10;79.10;;;;;;4954296;28;20146;-86
2023/09/20 09:52:38;;;;;;;6.90;2.20;;;18.20;79.00;;;;;;4970255;28;20373;-86
2023/09/20 09:55:07;;;;;;;6.25;2.22;;;18.20;78.70;;;;;;5002688;28;20285;-86
2023/09/20 09:57:34;;;;;;;6.93;2.22;;;18.20;78.40;;;;;;5002958;28;20059;-85
2023/09/20 10:00:05;;;;;;;6.32;2.20;;;18.20;78.50;;;;;;4970867;28;20075;-86
2023/09/20 10:02:42;;;;;;;4.38;1.75;;;18.30;78.30;;;;;;5002003;28;20527;-85
2023/09/20 10:05:14;;;;;;;5.53;1.90;;;18.30;78.30;;;;;;4969958;28;20110;-85
2023/09/20 10:07:45;;;;;;;5.38;1.83;;;18.30;78.30;;;;;;4970544;28;20266;-85
2023/09/20 10:10:13;;;;;;;7.93;2.10;;;18.40;78.30;;;;;;5001305;28;20513;-86
2023/09/20 10:12:44;;;;;;;6.03;2.00;;;18.40;78.00;;;;;;4986757;28;20054;-88
2023/09/20 10:15:13;;;;;;;5.50;1.73;;;18.40;78.10;;;;;;4968629;28;20055;-87
2023/09/20 10:17:46;;;;;;;6.17;1.80;;;18.40;77.90;;;;;;4970271;28;20065;-88
2023/09/20 10:20:16;;;;;;;6.55;1.90;;;18.50;77.80;;;;;;4986074;28;20326;-86
2023/09/20 10:22:45;;;;;;;6.80;2.17;;;18.50;77.80;;;;;;4986971;28;20134;-88
2023/09/20 10:25:29;;;;;;;5.00;1.90;;;18.50;77.70;;;;;;4986611;28;20059;-84
2023/09/20 10:27:57;;;;;;;6.03;1.73;;;18.50;77.60;;;;;;4967301;28;20043;-84
2023/09/20 10:30:25;;;;;;;4.93;1.80;;;18.50;77.50;;;;;;4982166;28;20062;-85
2023/09/20 10:32:55;;;;;;;4.18;1.40;;;18.50;77.20;;;;;;4962758;28;20255;-83
2023/09/20 10:35:27;;;;;;;5.80;2.10;;;18.60;77.30;;;;;;4971208;28;20058;-84
2023/09/20 10:38:20;;;;;;;4.53;1.50;;;18.60;77.30;;;;;;4974549;28;20057;-84
2023/09/20 10:41:03;;;;;;;4.60;1.75;;;18.60;77.30;;;;;;4985380;28;20157;-84
2023/09/20 10:43:49;;;;;;;4.33;1.70;;;18.60;76.90;;;;;;4982863;28;20055;-85
2023/09/20 10:46:18;;;;;;;3.83;1.73;;;18.60;76.80;;;;;;4953224;28;20271;-84
2023/09/20 10:48:50;;;;;;;5.40;1.88;;;18.60;77.10;;;;;;4970019;28;20055;-83
2023/09/20 10:51:43;;;;;;;6.55;1.80;;;18.70;76.60;;;;;;4964143;28;20126;-84
2023/09/20 10:54:21;;;;;;;4.55;1.40;;;18.70;76.40;;;;;;4992251;28;20066;-85
2023/09/20 10:57:05;;;;;;;5.00;1.77;;;18.80;76.30;;;;;;4988001;28;20158;-83
2023/09/20 10:59:33;;;;;;;4.63;1.65;;;18.70;76.20;;;;;;4956619;28;20346;-83
2023/09/20 11:02:05;;;;;;;5.95;1.60;;;18.70;76.20;;;;;;4988050;28;20055;-85
2023/09/20 11:04:36;;;;;;;4.63;1.70;;;18.80;76.30;;;;;;4986731;28;20059;-85
2023/09/20 11:07:06;;;;;;;4.50;1.75;;;18.70;76.50;;;;;;4973162;28;20161;-85
2023/09/20 11:09:34;;;;;;;3.93;1.50;;;18.70;76.40;;;;;;5006155;28;20047;-84
2023/09/20 11:12:07;;;;;;;4.63;1.58;;;18.80;75.90;;;;;;5005540;28;20291;-84
2023/09/20 11:14:36;;;;;;;3.85;1.48;;;18.80;75.80;;;;;;4970909;28;20055;-84
2023/09/20 11:17:05;;;;;;;4.85;1.60;;;18.80;75.70;;;;;;4997530;28;20051;-85
2023/09/20 11:19:35;;;;;;;5.45;1.90;;;18.80;76.00;;;;;;4973523;28;20510;-84
2023/09/20 11:22:03;;;;;;;6.10;1.87;;;18.90;75.80;;;;;;4973590;28;20082;-84
2023/09/20 11:24:33;;;;;;;5.38;2.10;;;18.90;76.00;;;;;;4973503;28;20330;-85
2023/09/20 11:27:00;;;;;;;6.22;1.88;;;18.90;75.20;;;;;;4986875;28;21021;-85
2023/09/20 11:29:28;;;;;;;4.63;1.70;;;19.00;74.60;;;;;;4996964;28;20163;-85
2023/09/20 11:31:59;;;;;;;4.93;1.83;;;19.00;74.30;;;;;;4973679;28;20051;-84
2023/09/20 11:34:28;;;;;;;5.70;1.83;;;19.00;74.10;;;;;;5007168;28;20051;-85
2023/09/20 11:36:57;;;;;;;5.85;1.75;;;19.10;74.40;;;;;;5006168;28;20314;-85
2023/09/20 11:39:31;;;;;;;7.50;1.90;;;19.10;74.50;;;;;;5005673;28;20111;-85
2023/09/20 11:42:04;;;;;;;3.97;2.03;;;19.10;73.90;;;;;;4989887;28;20086;-85
2023/09/20 11:44:36;;;;;;;7.03;1.90;;;19.10;74.10;;;;;;4999382;28;20494;-84
2023/09/20 11:47:04;;;;;;;5.67;1.90;;;19.10;74.20;;;;;;4973650;28;20047;-85
2023/09/20 11:49:32;;;;;;;6.15;2.15;;;19.20;74.20;;;;;;4973104;28;20260;-85
2023/09/20 11:52:03;;;;;;;7.68;2.30;;;19.20;74.70;;;;;;5003213;28;20552;-85
2023/09/20 11:54:30;;;;;;;6.80;2.03;;;19.20;74.70;;;;;;5009102;28;20134;-85
2023/09/20 11:57:01;;;;;;;5.07;2.15;;;19.30;74.40;;;;;;4976288;28;20135;-85
2023/09/20 11:59:28;;;;;;;6.77;2.40;;;19.40;74.70;;;;;;4995578;28;20047;-85
2023/09/20 12:01:56;;;;;;;6.65;2.50;;;19.50;73.30;;;;;;5009909;28;20295;-85
2023/09/20 12:04:24;;;;;;;6.53;2.47;;;19.60;72.10;;;;;;4971935;28;20055;-85
2023/09/20 12:06:53;;;;;;;5.65;2.20;;;19.70;72.50;;;;;;5005093;28;20083;-85
2023/09/20 12:09:24;;;;;;;6.03;2.17;;;19.70;73.20;;;;;;5004592;28;20134;-85
2023/09/20 12:11:52;;;;;;;5.90;2.20;;;19.80;73.40;;;;;;4993900;28;20063;-85
2023/09/20 12:14:18;;;;;;;6.47;2.47;;;19.90;73.10;;;;;;4973097;28;20255;-85
2023/09/20 12:16:48;;;;;;;6.15;2.65;;;19.90;73.20;;;;;;4994700;28;20062;-85
2023/09/20 12:19:16;;;;;;;6.50;2.22;;;20.00;72.50;;;;;;4975789;28;20539;-85
2023/09/20 12:21:45;;;;;;;6.22;2.30;;;20.00;72.20;;;;;;4979381;28;20054;-85
2023/09/20 12:24:13;;;;;;;5.00;2.50;;;20.00;72.20;;;;;;4963410;28;20062;-84
2023/09/20 12:26:51;;;;;;;5.97;2.63;;;20.00;72.00;;;;;;4991008;28;20263;-85
2023/09/20 12:29:18;;;;;;;9.05;2.95;;;20.10;71.20;;;;;;5008259;28;20051;-85
2023/09/20 12:31:47;;;;;;;7.15;2.72;;;20.10;70.70;;;;;;4988441;28;20142;-84
2023/09/20 12:34:14;;;;;;;6.63;2.30;;;20.10;70.80;;;;;;5016114;28;20054;-85
2023/09/20 12:36:41;;;;;;;6.83;2.47;;;20.20;70.90;;;;;;4988949;28;20059;-85
2023/09/20 12:39:10;;;;;;;6.80;2.50;;;20.20;71.00;;;;;;4956021;28;20274;-85
2023/09/20 12:41:38;;;;;;;5.45;2.17;;;20.30;70.80;;;;;;4987662;28;20058;-85
2023/09/20 12:44:07;;;;;;;7.70;2.95;;;20.30;70.20;;;;;;5008118;28;20074;-84
2023/09/20 12:46:36;;;;;;;7.43;2.50;;;20.30;70.20;;;;;;5006555;28;20056;-84
2023/09/20 12:49:04;;;;;;;4.83;2.47;;;20.50;70.20;;;;;;5005788;28;20529;-85
2023/09/20 12:51:33;;;;;;;5.53;2.63;;;20.50;70.30;;;;;;4974999;28;20673;-84
2023/09/20 12:54:02;;;;;;;6.35;2.50;;;20.60;69.90;;;;;;4972234;28;20126;-84
2023/09/20 12:56:31;;;;;;;7.15;2.22;;;20.60;70.20;;;;;;4987771;28;20055;-85
2023/09/20 12:58:58;;;;;;;8.27;2.70;;;20.70;69.50;;;;;;4988817;28;20509;-84
2023/09/20 13:01:26;;;;;;;5.30;2.40;;;20.80;69.00;;;;;;5008905;28;20589;-84
2023/09/20 13:03:54;;;;;;;5.82;2.17;;;20.80;69.00;;;;;;4971548;28;20270;-84
2023/09/20 13:06:24;;;;;;;6.70;2.65;;;20.90;68.40;;;;;;5003720;28;20055;-84
2023/09/20 13:08:51;;;;;;;6.15;2.63;;;20.90;68.70;;;;;;5008261;28;20506;-84
2023/09/20 13:11:18;;;;;;;4.93;2.17;;;20.90;69.20;;;;;;5009818;28;20051;-84
2023/09/20 13:13:45;;;;;;;6.33;2.30;;;21.00;69.00;;;;;;4971242;28;20057;-84
2023/09/20 13:16:13;;;;;;;5.45;1.77;;;21.00;68.80;;;;;;4971626;28;20359;-84
2023/09/20 13:18:43;;;;;;;6.05;2.22;;;21.10;68.90;;;;;;4987687;28;20055;-84
2023/09/20 13:21:11;;;;;;;4.45;1.90;;;21.10;68.80;;;;;;4971295;28;20055;-84
2023/09/20 13:23:38;;;;;;;6.38;2.45;;;21.10;67.80;;;;;;4972330;28;20063;-84
2023/09/20 13:26:08;;;;;;;4.33;2.07;;;21.20;68.20;;;;;;4987135;28;20565;-84
2023/09/20 13:28:35;;;;;;;7.72;2.00;;;21.30;68.60;;;;;;4987579;28;20251;-84
2023/09/20 13:31:03;;;;;;;5.95;2.10;;;21.40;68.40;;;;;;4987339;28;20712;-84
2023/09/20 13:33:31;;;;;;;5.10;2.20;;;21.40;68.70;;;;;;4959021;28;20142;-84
2023/09/20 13:35:59;;;;;;;7.18;2.10;;;21.50;68.40;;;;;;4972510;28;20146;-84
2023/09/20 13:38:26;;;;;;;5.60;2.40;;;21.50;66.90;;;;;;4970726;28;20123;-85
2023/09/20 13:40:53;;;;;;;7.65;2.30;;;21.50;66.90;;;;;;4970917;28;20293;-84
2023/09/20 13:43:21;;;;;;;5.82;1.98;;;21.60;67.10;;;;;;4996571;28;20497;-84
2023/09/20 13:45:48;;;;;;;6.78;2.17;;;21.50;67.00;;;;;;5007250;28;20059;-84
2023/09/20 13:48:15;;;;;;;5.07;1.92;;;21.50;67.20;;;;;;4973855;28;20047;-84
2023/09/20 13:50:44;;;;;;;4.73;1.83;;;21.50;67.00;;;;;;4988136;28;20519;-84
2023/09/20 13:53:13;;;;;;;5.25;1.70;;;21.50;66.50;;;;;;4974443;28;20259;-84